createdAt,value
2023-10-29T00:02:21.562Z,24.8
2023-10-29T00:04:04.975Z,24.8
2023-10-29T00:05:48.361Z,24.8
2023-10-29T00:07:31.769Z,24.8
2023-10-29T00:09:15.165Z,24.8
2023-10-29T00:10:58.553Z,24.8
2023-10-29T00:12:41.966Z,24.8
2023-10-29T00:16:08.441Z,24.8
2023-10-29T00:17:51.829Z,24.8
2023-10-29T00:19:35.235Z,24.8
2023-10-29T00:21:18.621Z,24.8
2023-10-29T00:23:02.032Z,24.8
2023-10-29T00:24:45.410Z,24.8
2023-10-29T00:26:28.794Z,24.8
2023-10-29T00:28:12.522Z,24.8
2023-10-29T00:29:55.915Z,24.8
2023-10-29T00:31:39.313Z,24.8
2023-10-29T00:33:22.715Z,24.8
2023-10-29T00:35:06.112Z,24.8
2023-10-29T00:36:49.506Z,24.8
2023-10-29T00:38:32.894Z,24.7
2023-10-29T00:41:59.369Z,24.7
2023-10-29T00:43:42.766Z,24.7
2023-10-29T00:45:26.168Z,24.7
2023-10-29T00:47:09.558Z,24.7
2023-10-29T00:48:52.959Z,24.7
2023-10-29T00:50:36.365Z,24.7
2023-10-29T00:52:19.729Z,24.7
2023-10-29T00:55:46.232Z,24.7
2023-10-29T00:57:29.616Z,24.7
2023-10-29T00:59:13.027Z,24.7
2023-10-29T01:00:56.423Z,24.7
2023-10-29T01:02:39.798Z,24.7
2023-10-29T01:04:23.224Z,24.7
2023-10-29T01:06:06.599Z,24.7
2023-10-29T01:09:33.078Z,24.7
2023-10-29T01:11:16.478Z,24.7
2023-10-29T01:12:59.929Z,24.7
2023-10-29T01:14:43.260Z,24.7
2023-10-29T01:16:26.673Z,24.7
2023-10-29T01:18:10.067Z,24.7
2023-10-29T01:19:53.467Z,24.7
2023-10-29T01:23:19.992Z,24.7
2023-10-29T01:25:03.336Z,24.7
2023-10-29T01:26:46.732Z,24.7
2023-10-29T01:28:30.188Z,24.7
2023-10-29T01:30:13.535Z,24.7
2023-10-29T01:31:56.912Z,24.6
2023-10-29T01:33:40.322Z,24.6
2023-10-29T01:35:24.010Z,24.6
2023-10-29T01:37:07.430Z,24.6
2023-10-29T01:38:50.836Z,24.6
2023-10-29T01:40:34.222Z,24.6
2023-10-29T01:42:17.625Z,24.6
2023-10-29T01:44:01.015Z,24.6
2023-10-29T01:45:44.412Z,24.6
2023-10-29T01:49:10.891Z,24.6
2023-10-29T01:50:54.286Z,24.6
2023-10-29T01:52:37.707Z,24.6
2023-10-29T01:54:21.070Z,24.6
2023-10-29T01:56:04.458Z,24.6
2023-10-29T01:57:47.849Z,24.6
2023-10-29T01:59:31.269Z,24.6
2023-10-29T02:02:57.733Z,24.6
2023-10-29T02:04:41.134Z,24.6
2023-10-29T02:06:24.524Z,24.6
2023-10-29T02:08:07.973Z,24.6
2023-10-29T02:09:51.363Z,24.6
2023-10-29T02:11:34.699Z,24.6
2023-10-29T02:13:18.108Z,24.6
2023-10-29T02:16:44.717Z,24.6
2023-10-29T02:18:28.067Z,24.6
2023-10-29T02:20:11.388Z,24.6
2023-10-29T02:21:54.775Z,24.6
2023-10-29T02:23:38.181Z,24.6
2023-10-29T02:25:21.573Z,24.6
2023-10-29T02:27:04.969Z,24.6
2023-10-29T02:30:31.439Z,24.6
2023-10-29T02:32:14.832Z,24.6
2023-10-29T02:33:58.242Z,24.6
2023-10-29T02:35:41.639Z,24.6
2023-10-29T02:37:25.039Z,24.6
2023-10-29T02:39:08.445Z,24.5
2023-10-29T02:40:51.829Z,24.5
2023-10-29T02:44:18.307Z,24.5
2023-10-29T02:46:01.694Z,24.5
2023-10-29T02:47:45.098Z,24.5
2023-10-29T02:49:28.497Z,24.5
2023-10-29T02:51:11.881Z,24.5
2023-10-29T02:52:55.286Z,24.5
2023-10-29T02:54:38.699Z,24.5
2023-10-29T02:58:05.157Z,24.5
2023-10-29T02:59:48.555Z,24.5
2023-10-29T03:01:31.958Z,24.5
2023-10-29T03:03:15.344Z,24.5
2023-10-29T03:04:58.745Z,24.5
2023-10-29T03:06:42.135Z,24.5
2023-10-29T03:08:25.548Z,24.5
2023-10-29T03:10:09.246Z,24.5
2023-10-29T03:11:52.653Z,24.5
2023-10-29T03:13:36.035Z,24.5
2023-10-29T03:15:19.423Z,24.5
2023-10-29T03:17:02.856Z,24.5
2023-10-29T03:18:46.399Z,24.5
2023-10-29T03:20:29.634Z,24.5
2023-10-29T03:23:56.154Z,24.5
2023-10-29T03:25:39.490Z,24.5
2023-10-29T03:27:22.900Z,24.5
2023-10-29T03:29:06.280Z,24.5
2023-10-29T03:30:49.685Z,24.5
2023-10-29T03:32:33.080Z,24.5
2023-10-29T03:34:16.513Z,24.5
2023-10-29T03:37:42.958Z,24.5
2023-10-29T03:39:26.350Z,24.5
2023-10-29T03:41:09.743Z,24.5
2023-10-29T03:42:53.151Z,24.5
2023-10-29T03:44:36.527Z,24.5
2023-10-29T03:46:19.953Z,24.5
2023-10-29T03:48:03.340Z,24.5
2023-10-29T03:51:29.818Z,24.5
2023-10-29T03:53:13.201Z,24.4
2023-10-29T03:54:56.679Z,24.4
2023-10-29T03:56:39.996Z,24.4
2023-10-29T03:58:23.387Z,24.4
2023-10-29T04:00:06.777Z,24.4
2023-10-29T04:01:50.209Z,24.4
2023-10-29T04:03:33.898Z,24.4
2023-10-29T04:05:17.300Z,24.4
2023-10-29T04:07:00.696Z,24.4
2023-10-29T04:08:44.087Z,24.4
2023-10-29T04:10:27.563Z,24.4
2023-10-29T04:12:10.894Z,24.4
2023-10-29T04:13:54.305Z,24.4
2023-10-29T04:15:37.974Z,24.4
2023-10-29T04:17:21.391Z,24.4
2023-10-29T04:19:04.806Z,24.4
2023-10-29T04:20:48.177Z,24.4
2023-10-29T04:22:31.570Z,24.4
2023-10-29T04:24:14.983Z,24.4
2023-10-29T04:25:58.363Z,24.4
2023-10-29T04:29:24.840Z,24.4
2023-10-29T04:31:08.241Z,24.4
2023-10-29T04:32:51.630Z,24.4
2023-10-29T04:34:35.018Z,24.4
2023-10-29T04:36:18.429Z,24.4
2023-10-29T04:38:01.811Z,24.4
2023-10-29T04:39:45.229Z,24.4
2023-10-29T04:43:11.709Z,24.4
2023-10-29T04:44:55.109Z,24.4
2023-10-29T04:46:38.499Z,24.4
2023-10-29T04:48:21.882Z,24.4
2023-10-29T04:50:05.274Z,24.4
2023-10-29T04:51:48.687Z,24.4
2023-10-29T04:53:32.079Z,24.4
2023-10-29T04:55:15.788Z,24.4
2023-10-29T04:56:59.170Z,24.4
2023-10-29T04:58:42.572Z,24.4
2023-10-29T05:00:25.963Z,24.4
2023-10-29T05:02:09.354Z,24.4
2023-10-29T05:03:52.768Z,24.4
2023-10-29T05:05:36.252Z,24.4
2023-10-29T05:09:02.658Z,24.4
2023-10-29T05:10:46.077Z,24.4
2023-10-29T05:12:29.430Z,24.3
2023-10-29T05:14:12.820Z,24.3
2023-10-29T05:15:56.292Z,24.3
2023-10-29T05:17:39.621Z,24.3
2023-10-29T05:19:23.009Z,24.3
2023-10-29T05:22:49.484Z,24.3
2023-10-29T05:24:32.916Z,24.3
2023-10-29T05:26:16.297Z,24.3
2023-10-29T05:27:59.687Z,24.3
2023-10-29T05:29:43.077Z,24.3
2023-10-29T05:31:26.519Z,24.3
2023-10-29T05:33:09.867Z,24.3
2023-10-29T05:36:36.373Z,24.3
2023-10-29T05:38:19.797Z,24.3
2023-10-29T05:40:03.133Z,24.3
2023-10-29T05:41:46.592Z,24.3
2023-10-29T05:43:29.944Z,24.3
2023-10-29T05:45:13.327Z,24.3
2023-10-29T05:46:56.725Z,24.3
2023-10-29T05:50:23.235Z,24.3
2023-10-29T05:52:06.609Z,24.3
2023-10-29T05:53:50.022Z,24.3
2023-10-29T05:55:33.386Z,24.3
2023-10-29T05:57:16.797Z,24.3
2023-10-29T05:59:00.177Z,24.3
2023-10-29T06:00:43.595Z,24.3
2023-10-29T06:04:10.073Z,24.3
2023-10-29T06:05:53.460Z,24.3
2023-10-29T06:07:36.857Z,24.3
2023-10-29T06:09:20.263Z,24.3
2023-10-29T06:11:03.653Z,24.3
2023-10-29T06:12:47.102Z,24.3
2023-10-29T06:14:30.488Z,24.2
2023-10-29T06:19:40.319Z,24.2
2023-10-29T06:21:23.711Z,24.2
2023-10-29T06:23:07.104Z,24.2
2023-10-29T06:24:50.512Z,24.2
2023-10-29T06:26:33.908Z,24.2
2023-10-29T06:28:17.307Z,24.2
2023-10-29T06:31:43.763Z,24.2
2023-10-29T06:33:27.165Z,24.2
2023-10-29T06:35:10.574Z,24.2
2023-10-29T06:36:53.969Z,24.2
2023-10-29T06:38:37.363Z,24.2
2023-10-29T06:40:20.779Z,24.2
2023-10-29T06:42:04.147Z,24.2
2023-10-29T06:45:30.632Z,24.2
2023-10-29T06:47:14.049Z,24.2
2023-10-29T06:48:57.542Z,24.2
2023-10-29T06:50:40.798Z,24.2
2023-10-29T06:52:24.240Z,24.2
2023-10-29T06:54:07.611Z,24.2
2023-10-29T06:55:51.012Z,24.2
2023-10-29T06:59:17.555Z,24.2
2023-10-29T07:01:00.910Z,24.2
2023-10-29T07:02:44.273Z,24.2
2023-10-29T07:04:27.731Z,24.2
2023-10-29T07:06:11.060Z,24.2
2023-10-29T07:07:54.467Z,24.2
2023-10-29T07:09:37.872Z,24.2
2023-10-29T07:13:04.343Z,24.2
2023-10-29T07:14:47.734Z,24.2
2023-10-29T07:16:31.141Z,24.2
2023-10-29T07:18:14.537Z,24.2
2023-10-29T07:19:57.927Z,24.2
2023-10-29T07:21:41.332Z,24.2
2023-10-29T07:23:24.739Z,24.2
2023-10-29T07:26:51.205Z,24.2
2023-10-29T07:28:34.594Z,24.2
2023-10-29T07:30:18.045Z,24.3
2023-10-29T07:32:01.394Z,24.2
2023-10-29T07:33:44.792Z,24.3
2023-10-29T07:35:28.180Z,24.3
2023-10-29T07:37:11.581Z,24.3
2023-10-29T07:40:38.055Z,24.3
2023-10-29T07:42:21.455Z,24.3
2023-10-29T07:44:04.840Z,24.3
2023-10-29T07:45:48.272Z,24.3
2023-10-29T07:47:31.645Z,24.3
2023-10-29T07:49:15.031Z,24.3
2023-10-29T07:50:58.430Z,24.3
2023-10-29T07:54:24.921Z,24.3
2023-10-29T07:56:08.319Z,24.3
2023-10-29T07:57:51.692Z,24.3
2023-10-29T07:59:35.104Z,24.3
2023-10-29T08:01:18.496Z,24.3
2023-10-29T08:03:01.907Z,24.3
2023-10-29T08:04:45.324Z,24.3
2023-10-29T08:08:11.762Z,24.3
2023-10-29T08:09:55.159Z,24.3
2023-10-29T08:11:38.547Z,24.4
2023-10-29T08:13:21.974Z,24.4
2023-10-29T08:15:05.360Z,24.4
2023-10-29T08:16:48.738Z,24.4
2023-10-29T08:18:32.141Z,24.4
2023-10-29T08:20:15.958Z,24.4
2023-10-29T08:21:59.327Z,24.4
2023-10-29T08:23:42.643Z,24.4
2023-10-29T08:25:26.029Z,24.5
2023-10-29T08:27:09.428Z,24.5
2023-10-29T08:28:52.841Z,24.5
2023-10-29T08:30:36.292Z,24.5
2023-10-29T08:34:02.728Z,24.5
2023-10-29T08:35:46.205Z,24.5
2023-10-29T08:37:29.531Z,24.5
2023-10-29T08:39:12.930Z,24.5
2023-10-29T08:40:56.298Z,24.5
2023-10-29T08:42:39.691Z,24.5
2023-10-29T08:44:23.076Z,24.5
2023-10-29T08:47:49.552Z,24.5
2023-10-29T08:49:32.962Z,24.5
2023-10-29T08:51:16.352Z,24.5
2023-10-29T08:52:59.745Z,24.5
2023-10-29T08:54:43.181Z,24.6
2023-10-29T08:56:26.594Z,24.6
2023-10-29T08:58:09.939Z,24.6
2023-10-29T09:01:36.409Z,24.6
2023-10-29T09:03:19.818Z,24.6
2023-10-29T09:05:03.213Z,24.6
2023-10-29T09:06:46.596Z,24.6
2023-10-29T09:08:30.021Z,24.6
2023-10-29T09:10:13.432Z,24.6
2023-10-29T09:11:56.826Z,24.7
2023-10-29T09:15:23.278Z,24.6
2023-10-29T09:17:06.672Z,24.7
2023-10-29T09:18:50.075Z,24.7
2023-10-29T09:20:33.453Z,24.7
2023-10-29T09:22:16.867Z,24.7
2023-10-29T09:24:00.293Z,24.7
2023-10-29T09:25:43.651Z,24.7
2023-10-29T09:29:10.126Z,24.7
2023-10-29T09:30:53.524Z,24.7
2023-10-29T09:32:36.991Z,24.7
2023-10-29T09:34:20.309Z,24.7
2023-10-29T09:36:03.744Z,24.7
2023-10-29T09:37:47.106Z,24.8
2023-10-29T09:39:30.514Z,24.8
2023-10-29T09:42:57.033Z,24.8
2023-10-29T09:44:40.455Z,24.8
2023-10-29T09:46:23.805Z,24.7
2023-10-29T09:48:07.174Z,24.7
2023-10-29T09:49:50.577Z,24.7
2023-10-29T09:51:33.959Z,24.7
2023-10-29T09:53:17.375Z,24.7
2023-10-29T09:56:43.838Z,24.7
2023-10-29T09:58:27.253Z,24.7
2023-10-29T10:00:10.634Z,24.7
2023-10-29T10:01:54.025Z,24.7
2023-10-29T10:03:37.431Z,24.7
2023-10-29T10:05:20.834Z,24.7
2023-10-29T10:07:04.221Z,24.7
2023-10-29T10:10:30.683Z,24.7
2023-10-29T10:12:14.081Z,24.8
2023-10-29T10:13:57.512Z,24.8
2023-10-29T10:15:40.911Z,24.8
2023-10-29T10:17:24.280Z,24.8
2023-10-29T10:19:07.680Z,24.8
2023-10-29T10:20:51.086Z,24.9
2023-10-29T10:24:17.568Z,24.9
2023-10-29T10:26:00.940Z,24.9
2023-10-29T10:27:44.342Z,24.9
2023-10-29T10:29:27.725Z,24.9
2023-10-29T10:31:11.122Z,24.9
2023-10-29T10:32:54.531Z,24.9
2023-10-29T10:34:37.920Z,24.9
2023-10-29T10:38:04.396Z,24.9
2023-10-29T10:39:47.838Z,24.9
2023-10-29T10:41:31.209Z,24.9
2023-10-29T10:43:14.586Z,24.9
2023-10-29T10:44:57.989Z,24.9
2023-10-29T10:46:41.385Z,24.9
2023-10-29T10:48:24.797Z,24.9
2023-10-29T10:51:51.247Z,24.9
2023-10-29T10:53:34.637Z,24.9
2023-10-29T10:55:18.051Z,24.9
2023-10-29T10:57:01.463Z,24.9
2023-10-29T10:58:44.901Z,24.9
2023-10-29T11:00:28.299Z,24.9
2023-10-29T11:02:11.629Z,24.9
2023-10-29T11:05:38.121Z,24.9
2023-10-29T11:07:21.531Z,24.9
2023-10-29T11:09:04.935Z,24.9
2023-10-29T11:10:48.316Z,24.9
2023-10-29T11:12:31.718Z,24.9
2023-10-29T11:14:15.246Z,24.9
2023-10-29T11:15:58.495Z,24.9
2023-10-29T11:19:24.976Z,24.9
2023-10-29T11:21:08.375Z,24.9
2023-10-29T11:22:51.759Z,24.9
2023-10-29T11:24:35.154Z,24.9
2023-10-29T11:26:18.556Z,24.9
2023-10-29T11:28:01.958Z,24.9
2023-10-29T11:29:45.446Z,24.9
2023-10-29T11:33:11.820Z,24.9
2023-10-29T11:34:55.214Z,24.9
2023-10-29T11:36:38.626Z,25
2023-10-29T11:38:22.009Z,24.9
2023-10-29T11:40:05.421Z,25
2023-10-29T11:41:48.808Z,25
2023-10-29T11:43:32.233Z,25
2023-10-29T11:46:58.675Z,25
2023-10-29T11:48:42.080Z,25
2023-10-29T11:50:25.480Z,25
2023-10-29T11:52:08.882Z,25
2023-10-29T11:53:52.262Z,25
2023-10-29T11:55:35.664Z,25
2023-10-29T11:57:19.064Z,25
2023-10-29T12:00:45.560Z,25
2023-10-29T12:02:28.937Z,25
2023-10-29T12:04:12.316Z,25
2023-10-29T12:05:55.716Z,25
2023-10-29T12:07:39.117Z,25
2023-10-29T12:09:22.527Z,25
2023-10-29T12:11:05.950Z,25
2023-10-29T12:14:32.398Z,25
2023-10-29T12:16:16.062Z,25
2023-10-29T12:17:59.345Z,25
2023-10-29T12:19:42.588Z,25
2023-10-29T12:21:25.992Z,25
2023-10-29T12:23:09.365Z,25
2023-10-29T12:24:52.767Z,25
2023-10-29T12:26:36.479Z,25
2023-10-29T12:28:19.859Z,25
2023-10-29T12:30:03.265Z,25
2023-10-29T12:31:46.670Z,25
2023-10-29T12:33:30.056Z,25
2023-10-29T12:35:13.457Z,25
2023-10-29T12:36:56.856Z,25
2023-10-29T12:40:23.338Z,25
2023-10-29T12:42:06.729Z,25
2023-10-29T12:43:50.127Z,25
2023-10-29T12:45:33.530Z,25
2023-10-29T12:47:16.925Z,25
2023-10-29T12:49:00.320Z,25
2023-10-29T12:50:43.709Z,25
2023-10-29T12:54:10.198Z,25.1
2023-10-29T12:55:53.598Z,25
2023-10-29T12:57:36.976Z,25
2023-10-29T12:59:20.372Z,25
2023-10-29T13:01:03.769Z,25
2023-10-29T13:02:47.179Z,25
2023-10-29T13:04:30.566Z,25
2023-10-29T13:07:57.046Z,25
2023-10-29T13:09:40.441Z,25
2023-10-29T13:11:23.840Z,25
2023-10-29T13:13:07.240Z,25
2023-10-29T13:14:50.619Z,25
2023-10-29T13:18:17.413Z,25
2023-10-29T13:21:43.891Z,25
2023-10-29T13:23:27.284Z,25
2023-10-29T13:25:10.674Z,25
2023-10-29T13:26:54.088Z,25
2023-10-29T13:28:37.486Z,25
2023-10-29T13:30:20.879Z,25
2023-10-29T13:32:04.295Z,25
2023-10-29T13:35:30.759Z,25
2023-10-29T13:37:14.138Z,25
2023-10-29T13:38:57.562Z,25
2023-10-29T13:40:40.962Z,25
2023-10-29T13:42:24.350Z,25
2023-10-29T13:44:07.733Z,25
2023-10-29T13:45:51.130Z,25
2023-10-29T13:49:17.606Z,24.9
2023-10-29T13:51:01.000Z,24.9
2023-10-29T13:52:44.412Z,24.9
2023-10-29T13:54:27.801Z,24.9
2023-10-29T13:56:11.206Z,24.9
2023-10-29T13:57:54.613Z,24.9
2023-10-29T13:59:37.999Z,24.9
2023-10-29T14:01:21.711Z,24.9
2023-10-29T14:03:05.093Z,24.9
2023-10-29T14:04:48.515Z,24.9
2023-10-29T14:06:31.883Z,24.9
2023-10-29T14:08:15.276Z,24.9
2023-10-29T14:09:58.681Z,24.9
2023-10-29T14:11:42.072Z,24.9
2023-10-29T14:15:08.550Z,24.9
2023-10-29T14:16:51.961Z,24.9
2023-10-29T14:18:35.355Z,24.9
2023-10-29T14:20:18.742Z,24.9
2023-10-29T14:22:02.153Z,24.9
2023-10-29T14:23:45.636Z,24.9
2023-10-29T14:25:28.948Z,24.9
2023-10-29T14:28:55.406Z,24.9
2023-10-29T14:30:38.822Z,24.9
2023-10-29T14:32:22.198Z,24.9
2023-10-29T14:34:05.617Z,24.9
2023-10-29T14:35:48.992Z,24.9
2023-10-29T14:37:32.407Z,24.9
2023-10-29T14:39:15.887Z,24.9
2023-10-29T14:40:59.513Z,24.9
2023-10-29T14:42:42.902Z,24.9
2023-10-29T14:44:26.285Z,24.9
2023-10-29T14:46:09.710Z,24.9
2023-10-29T14:47:53.088Z,24.9
2023-10-29T14:49:36.493Z,24.9
2023-10-29T14:51:19.882Z,24.9
2023-10-29T14:54:46.381Z,24.9
2023-10-29T14:56:29.737Z,24.9
2023-10-29T14:58:13.138Z,24.9
2023-10-29T14:59:56.549Z,24.9
2023-10-29T15:01:39.945Z,24.9
2023-10-29T15:03:23.326Z,24.9
2023-10-29T15:05:06.727Z,24.9
2023-10-29T15:08:33.198Z,24.9
2023-10-29T15:10:16.604Z,24.8
2023-10-29T15:12:00.092Z,24.8
2023-10-29T15:13:43.408Z,24.8
2023-10-29T15:15:26.789Z,24.8
2023-10-29T15:17:10.189Z,24.8
2023-10-29T15:18:53.591Z,24.8
2023-10-29T15:20:37.298Z,24.8
2023-10-29T15:22:20.688Z,24.8
2023-10-29T15:24:04.093Z,24.8
2023-10-29T15:25:47.473Z,24.8
2023-10-29T15:27:30.872Z,24.8
2023-10-29T15:29:14.279Z,24.8
2023-10-29T15:30:57.675Z,24.7
2023-10-29T15:36:06.918Z,24.7
2023-10-29T15:37:50.339Z,24.7
2023-10-29T15:39:33.702Z,24.7
2023-10-29T15:41:17.115Z,24.7
2023-10-29T15:43:00.508Z,24.7
2023-10-29T15:44:43.937Z,24.7
2023-10-29T15:46:27.297Z,24.7
2023-10-29T15:49:53.771Z,24.7
2023-10-29T15:51:37.169Z,24.7
2023-10-29T15:53:20.567Z,24.7
2023-10-29T15:55:03.957Z,24.7
2023-10-29T15:56:47.364Z,24.7
2023-10-29T15:58:30.751Z,24.7
2023-10-29T16:00:14.168Z,24.7
2023-10-29T16:01:57.559Z,24.7
2023-10-29T16:03:41.396Z,24.7
2023-10-29T16:05:24.648Z,24.7
2023-10-29T16:07:08.053Z,24.7
2023-10-29T16:08:51.455Z,24.7
2023-10-29T16:10:34.865Z,24.7
2023-10-29T16:12:18.239Z,24.7
2023-10-29T16:14:01.635Z,24.7
2023-10-29T16:17:28.154Z,24.7
2023-10-29T16:19:11.535Z,24.7
2023-10-29T16:20:54.911Z,24.7
2023-10-29T16:22:38.297Z,24.6
2023-10-29T16:24:21.704Z,24.7
2023-10-29T16:26:05.110Z,24.6
2023-10-29T16:27:48.492Z,24.6
2023-10-29T16:29:31.965Z,24.6
2023-10-29T16:31:15.594Z,24.6
2023-10-29T16:32:58.993Z,24.6
2023-10-29T16:34:42.375Z,24.6
2023-10-29T16:36:25.814Z,24.6
2023-10-29T16:38:09.180Z,24.6
2023-10-29T16:39:52.583Z,24.6
2023-10-29T16:41:35.991Z,24.6
2023-10-29T16:45:02.451Z,24.6
2023-10-29T16:46:45.849Z,24.6
2023-10-29T16:48:29.276Z,24.6
2023-10-29T16:50:12.644Z,24.6
2023-10-29T16:51:56.096Z,24.6
2023-10-29T16:53:39.486Z,24.6
2023-10-29T16:55:22.834Z,24.6
2023-10-29T16:58:49.305Z,24.6
2023-10-29T17:00:32.782Z,24.6
2023-10-29T17:02:16.127Z,24.6
2023-10-29T17:03:59.571Z,24.6
2023-10-29T17:05:42.902Z,24.6
2023-10-29T17:07:26.290Z,24.6
2023-10-29T17:09:09.710Z,24.6
2023-10-29T17:14:18.951Z,24.6
2023-10-29T17:16:02.336Z,24.6
2023-10-29T17:17:45.739Z,24.6
2023-10-29T17:19:29.111Z,24.6
2023-10-29T17:21:12.517Z,24.6
2023-10-29T17:22:55.985Z,24.6
2023-10-29T17:24:39.423Z,24.6
2023-10-29T17:28:05.838Z,24.6
2023-10-29T17:29:49.196Z,24.6
2023-10-29T17:31:32.595Z,24.6
2023-10-29T17:33:15.989Z,24.6
2023-10-29T17:34:59.382Z,24.6
2023-10-29T17:36:42.800Z,24.6
2023-10-29T17:38:26.173Z,24.6
2023-10-29T17:41:52.708Z,24.6
2023-10-29T17:43:36.052Z,24.6
2023-10-29T17:45:19.444Z,24.6
2023-10-29T17:47:02.908Z,24.6
2023-10-29T17:48:46.293Z,24.6
2023-10-29T17:50:29.681Z,24.5
2023-10-29T17:52:13.109Z,24.5
2023-10-29T17:55:39.650Z,24.6
2023-10-29T17:59:06.389Z,24.6
2023-10-29T18:00:49.702Z,24.6
2023-10-29T18:02:33.091Z,24.6
2023-10-29T18:04:16.550Z,24.6
2023-10-29T18:05:59.906Z,24.6
2023-10-29T18:09:26.373Z,24.6
2023-10-29T18:11:09.760Z,24.6
2023-10-29T18:12:53.160Z,24.6
2023-10-29T18:14:36.535Z,24.6
2023-10-29T18:16:19.941Z,24.6
2023-10-29T18:18:03.371Z,24.6
2023-10-29T18:19:46.742Z,24.6
2023-10-29T18:21:30.433Z,24.6
2023-10-29T18:23:13.842Z,24.6
2023-10-29T18:24:57.246Z,24.5
2023-10-29T18:26:40.640Z,24.6
2023-10-29T18:28:24.040Z,24.6
2023-10-29T18:30:07.477Z,24.6
2023-10-29T18:31:50.821Z,24.6
2023-10-29T18:35:17.296Z,24.6
2023-10-29T18:37:00.751Z,24.7
2023-10-29T18:38:44.122Z,24.7
2023-10-29T18:40:27.509Z,24.7
2023-10-29T18:42:10.949Z,24.7
2023-10-29T18:43:54.353Z,24.7
2023-10-29T18:45:37.678Z,24.8
2023-10-29T18:49:04.158Z,24.8
2023-10-29T18:50:47.547Z,24.8
2023-10-29T18:52:31.004Z,24.8
2023-10-29T18:54:14.338Z,24.9
2023-10-29T18:55:57.746Z,24.9
2023-10-29T18:57:41.129Z,24.9
2023-10-29T18:59:24.539Z,24.9
2023-10-29T19:02:51.011Z,24.9
2023-10-29T19:04:34.400Z,24.9
2023-10-29T19:06:17.825Z,24.9
2023-10-29T19:08:01.272Z,25
2023-10-29T19:09:44.598Z,25
2023-10-29T19:11:28.038Z,25
2023-10-29T19:13:11.399Z,25
2023-10-29T19:16:37.858Z,25
2023-10-29T19:18:21.300Z,25
2023-10-29T19:20:04.658Z,25
2023-10-29T19:21:48.138Z,25
2023-10-29T19:23:31.472Z,25
2023-10-29T19:25:14.872Z,25
2023-10-29T19:26:58.330Z,24.9
2023-10-29T19:32:07.519Z,24.9
2023-10-29T19:33:50.889Z,24.9
2023-10-29T19:35:34.331Z,24.9
2023-10-29T19:37:17.685Z,24.9
2023-10-29T19:39:01.084Z,24.9
2023-10-29T19:40:44.497Z,24.9
2023-10-29T19:42:27.881Z,24.9
2023-10-29T19:45:54.342Z,24.9
2023-10-29T19:47:37.740Z,24.9
2023-10-29T19:49:21.138Z,24.9
2023-10-29T19:51:04.535Z,24.9
2023-10-29T19:52:48.118Z,24.9
2023-10-29T19:54:31.321Z,24.9
2023-10-29T19:56:14.904Z,24.9
2023-10-29T19:59:41.258Z,24.9
2023-10-29T20:01:24.596Z,24.9
2023-10-29T20:03:07.982Z,24.9
2023-10-29T20:04:51.380Z,24.9
2023-10-29T20:06:34.811Z,24.9
2023-10-29T20:08:18.219Z,24.9
2023-10-29T20:10:01.644Z,24.9
2023-10-29T20:13:28.070Z,24.9
2023-10-29T20:15:11.444Z,24.9
2023-10-29T20:16:54.856Z,24.9
2023-10-29T20:18:38.281Z,24.9
2023-10-29T20:20:21.636Z,24.9
2023-10-29T20:22:05.064Z,24.9
2023-10-29T20:23:48.446Z,24.9
2023-10-29T20:27:14.959Z,24.9
2023-10-29T20:28:58.328Z,24.9
2023-10-29T20:30:41.696Z,24.9
2023-10-29T20:32:25.097Z,24.9
2023-10-29T20:34:08.503Z,24.9
2023-10-29T20:35:51.912Z,24.9
2023-10-29T20:37:35.301Z,24.9
2023-10-29T20:39:18.733Z,24.9
2023-10-29T20:41:02.419Z,24.9
2023-10-29T20:42:45.796Z,24.9
2023-10-29T20:44:29.190Z,24.9
2023-10-29T20:46:12.630Z,24.9
2023-10-29T20:47:56.022Z,24.9
2023-10-29T20:49:39.395Z,24.9
2023-10-29T20:51:22.794Z,24.9
2023-10-29T20:54:49.282Z,24.9
2023-10-29T20:56:32.662Z,24.9
2023-10-29T20:58:16.035Z,24.9
2023-10-29T20:59:59.511Z,24.9
2023-10-29T21:01:42.846Z,24.9
2023-10-29T21:03:26.266Z,24.9
2023-10-29T21:05:09.641Z,24.9
2023-10-29T21:10:18.894Z,24.9
2023-10-29T21:12:02.280Z,24.9
2023-10-29T21:13:45.728Z,24.9
2023-10-29T21:15:29.148Z,24.9
2023-10-29T21:17:12.463Z,24.9
2023-10-29T21:18:55.850Z,24.9
2023-10-29T21:20:39.281Z,24.9
2023-10-29T21:24:05.758Z,24.9
2023-10-29T21:25:49.138Z,24.9
2023-10-29T21:27:32.531Z,24.9
2023-10-29T21:29:15.934Z,24.9
2023-10-29T21:30:59.320Z,24.9
2023-10-29T21:32:42.721Z,24.9
2023-10-29T21:34:26.246Z,25
2023-10-29T21:36:09.827Z,25
2023-10-29T21:37:53.290Z,25
2023-10-29T21:39:36.602Z,24.9
2023-10-29T21:41:20.018Z,24.9
2023-10-29T21:43:03.412Z,24.9
2023-10-29T21:44:46.844Z,24.9
2023-10-29T21:46:30.209Z,24.9
2023-10-29T21:49:56.681Z,24.9
2023-10-29T21:51:40.073Z,24.9
2023-10-29T21:53:23.463Z,24.9
2023-10-29T21:55:06.852Z,24.9
2023-10-29T21:56:50.295Z,24.9
2023-10-29T21:58:33.658Z,24.9
2023-10-29T22:00:17.056Z,24.9
2023-10-29T22:03:43.520Z,24.9
2023-10-29T22:05:26.941Z,24.9
2023-10-29T22:07:10.344Z,24.9
2023-10-29T22:08:53.713Z,24.9
2023-10-29T22:10:37.130Z,24.9
2023-10-29T22:12:20.561Z,24.9
2023-10-29T22:14:03.914Z,24.9
2023-10-29T22:19:13.168Z,24.9
2023-10-29T22:20:56.531Z,24.9
2023-10-29T22:22:39.950Z,24.9
2023-10-29T22:24:23.336Z,24.9
2023-10-29T22:26:06.745Z,24.9
2023-10-29T22:27:50.128Z,24.9
2023-10-29T22:29:33.529Z,24.9
2023-10-29T22:33:00.084Z,24.9
2023-10-29T22:34:43.515Z,24.9
2023-10-29T22:36:26.825Z,24.9
2023-10-29T22:38:10.217Z,24.9
2023-10-29T22:39:53.602Z,24.9
2023-10-29T22:41:36.996Z,24.9
2023-10-29T22:43:20.408Z,24.9
2023-10-29T22:46:46.851Z,24.9
2023-10-29T22:48:30.262Z,24.9
2023-10-29T22:50:13.656Z,24.9
2023-10-29T22:51:57.068Z,24.9
2023-10-29T22:53:40.485Z,24.9
2023-10-29T22:55:23.841Z,24.9
2023-10-29T22:57:07.237Z,24.9
2023-10-29T23:00:33.956Z,24.9
2023-10-29T23:04:00.509Z,24.9
2023-10-29T23:05:43.938Z,24.9
2023-10-29T23:07:27.338Z,24.9
2023-10-29T23:09:10.722Z,24.9
2023-10-29T23:10:54.094Z,24.9
2023-10-29T23:12:37.800Z,24.9
2023-10-29T23:14:21.212Z,24.9
2023-10-29T23:16:04.601Z,24.9
2023-10-29T23:17:48.016Z,24.9
2023-10-29T23:19:31.378Z,24.9
2023-10-29T23:21:14.809Z,24.9
2023-10-29T23:22:58.233Z,24.9
2023-10-29T23:26:24.762Z,24.8
2023-10-29T23:28:08.067Z,24.8
2023-10-29T23:29:51.462Z,24.8
2023-10-29T23:31:34.858Z,24.8
2023-10-29T23:33:18.247Z,24.8
2023-10-29T23:35:01.667Z,24.8
2023-10-29T23:36:45.065Z,24.8
2023-10-29T23:40:11.511Z,24.8
2023-10-29T23:41:54.915Z,24.8
2023-10-29T23:43:38.316Z,24.8
2023-10-29T23:45:21.715Z,24.8
2023-10-29T23:47:05.233Z,24.8
2023-10-29T23:48:48.500Z,24.8
2023-10-29T23:50:31.900Z,24.8
2023-10-29T23:53:58.652Z,24.8
2023-10-29T23:55:41.852Z,24.8
2023-10-29T23:57:25.178Z,24.8
2023-10-29T23:59:08.577Z,24.8
